createdAt,value
2018-08-20T00:00:52.137Z,64.76
2018-08-20T00:03:20.359Z,65.15
2018-08-20T00:05:52.604Z,64.97
2018-08-20T00:08:20.841Z,64.91
2018-08-20T00:10:51.863Z,65.54
2018-08-20T00:13:20.089Z,65.95
2018-08-20T00:15:48.316Z,66.40
2018-08-20T00:18:21.869Z,67.39
2018-08-20T00:20:50.066Z,66.99
2018-08-20T00:23:18.289Z,67.88
2018-08-20T00:25:46.509Z,67.75
2018-08-20T00:28:14.716Z,68.84
2018-08-20T00:30:43.494Z,68.21
2018-08-20T00:33:11.841Z,69.25
2018-08-20T00:35:40.105Z,68.52
2018-08-20T00:38:08.329Z,68.08
2018-08-20T00:40:36.549Z,68.57
2018-08-20T00:43:04.828Z,67.42
2018-08-20T00:45:33.024Z,68.41
2018-08-20T00:48:01.249Z,68.15
2018-08-20T00:50:29.445Z,67.95
2018-08-20T00:52:57.648Z,68.06
2018-08-20T00:55:25.845Z,67.59
2018-08-20T00:57:54.077Z,68.48
2018-08-20T01:00:22.301Z,67.81
2018-08-20T01:02:50.533Z,68.56
2018-08-20T01:05:18.769Z,67.93
2018-08-20T01:07:46.973Z,67.50
2018-08-20T01:10:15.215Z,68.34
2018-08-20T01:12:43.463Z,68.58
2018-08-20T01:15:11.685Z,68.81
2018-08-20T01:17:39.889Z,69.12
2018-08-20T01:20:08.197Z,68.76
2018-08-20T01:22:36.410Z,67.87
2018-08-20T01:25:04.710Z,67.86
2018-08-20T01:27:32.930Z,67.60
2018-08-20T01:30:01.177Z,68.77
2018-08-20T01:32:29.385Z,69.09
2018-08-20T01:35:13.216Z,68.66
2018-08-20T01:37:41.869Z,68.43
2018-08-20T01:40:10.084Z,69.35
2018-08-20T01:42:38.304Z,69.04
2018-08-20T01:45:06.565Z,68.64
2018-08-20T01:47:34.805Z,68.33
2018-08-20T01:50:03.053Z,69.30
2018-08-20T01:52:31.289Z,69.39
2018-08-20T01:54:59.495Z,68.47
2018-08-20T01:57:27.781Z,68.94
2018-08-20T01:59:56.090Z,68.26
2018-08-20T02:02:24.309Z,68.97
2018-08-20T02:04:52.537Z,68.05
2018-08-20T02:07:20.757Z,68.19
2018-08-20T02:09:49.063Z,68.60
2018-08-20T02:12:17.301Z,68.56
2018-08-20T02:14:45.544Z,68.35
2018-08-20T02:17:13.742Z,68.52
2018-08-20T02:19:41.941Z,67.56
2018-08-20T02:22:10.165Z,68.37
2018-08-20T02:24:38.389Z,68.21
2018-08-20T02:27:06.617Z,67.00
2018-08-20T02:29:34.825Z,67.37
2018-08-20T02:32:03.045Z,68.06
2018-08-20T02:34:31.241Z,67.38
2018-08-20T02:36:59.460Z,67.84
2018-08-20T02:39:27.671Z,68.42
2018-08-20T02:41:55.886Z,67.98
2018-08-20T02:44:24.129Z,67.80
2018-08-20T02:46:53.785Z,67.27
2018-08-20T02:49:22.037Z,67.69
2018-08-20T02:51:50.853Z,68.36
2018-08-20T02:54:19.113Z,68.56
2018-08-20T02:56:47.333Z,67.64
2018-08-20T02:59:15.977Z,67.34
2018-08-20T03:01:44.177Z,68.54
2018-08-20T03:04:12.401Z,68.04
2018-08-20T03:06:40.643Z,67.92
2018-08-20T03:09:12.511Z,68.33
2018-08-20T03:11:40.734Z,68.12
2018-08-20T03:14:09.020Z,67.47
2018-08-20T03:16:37.800Z,68.85
2018-08-20T03:19:06.592Z,69.19
2018-08-20T03:21:34.811Z,68.82
2018-08-20T03:24:03.128Z,68.27
2018-08-20T03:26:31.460Z,68.96
2018-08-20T03:29:00.265Z,68.35
2018-08-20T03:31:28.518Z,69.03
2018-08-20T03:33:56.729Z,68.15
2018-08-20T03:36:25.009Z,68.03
2018-08-20T03:38:53.205Z,67.80
2018-08-20T03:41:21.434Z,67.50
2018-08-20T03:43:49.760Z,67.27
2018-08-20T03:46:17.997Z,67.55
2018-08-20T03:48:46.229Z,67.95
2018-08-20T03:51:14.500Z,68.52
2018-08-20T03:53:42.705Z,68.13
2018-08-20T03:56:10.937Z,68.01
2018-08-20T03:58:39.150Z,68.88
2018-08-20T04:01:07.421Z,68.85
2018-08-20T04:03:35.657Z,68.65
2018-08-20T04:06:03.925Z,68.85
2018-08-20T04:08:32.133Z,68.91
2018-08-20T04:11:00.397Z,68.69
2018-08-20T04:13:28.629Z,68.86
2018-08-20T04:15:56.842Z,68.86
2018-08-20T04:18:25.057Z,69.40
2018-08-20T04:20:53.266Z,69.13
2018-08-20T04:23:21.517Z,69.27
2018-08-20T04:25:49.749Z,69.04
2018-08-20T04:28:17.977Z,68.46
2018-08-20T04:30:46.259Z,68.93
2018-08-20T04:33:14.433Z,69.18
2018-08-20T04:35:42.647Z,69.52
2018-08-20T04:38:10.865Z,68.52
2018-08-20T04:40:39.094Z,69.39
2018-08-20T04:43:07.477Z,69.39
2018-08-20T04:45:35.677Z,69.53
2018-08-20T04:48:03.913Z,69.67
2018-08-20T04:50:32.316Z,69.06
2018-08-20T04:53:00.926Z,69.91
2018-08-20T04:55:29.152Z,69.42
2018-08-20T04:57:57.364Z,69.98
2018-08-20T05:00:25.616Z,70.08
2018-08-20T05:02:53.820Z,70.59
2018-08-20T05:05:22.033Z,69.27
2018-08-20T05:07:50.245Z,69.45
2018-08-20T05:10:18.485Z,70.63
2018-08-20T05:12:46.698Z,70.58
2018-08-20T05:15:14.943Z,70.29
2018-08-20T05:17:43.173Z,71.06
2018-08-20T05:20:11.418Z,70.71
2018-08-20T05:22:39.746Z,70.60
2018-08-20T05:25:08.193Z,71.05
2018-08-20T05:27:36.449Z,70.34
2018-08-20T05:30:05.141Z,70.39
2018-08-20T05:32:33.362Z,70.37
2018-08-20T05:35:01.569Z,72.24
2018-08-20T05:37:29.841Z,71.81
2018-08-20T05:39:58.061Z,71.44
2018-08-20T05:42:26.281Z,70.82
2018-08-20T05:44:54.510Z,70.70
2018-08-20T05:47:22.701Z,70.78
2018-08-20T05:49:50.915Z,71.34
2018-08-20T05:52:19.149Z,71.27
2018-08-20T05:54:47.353Z,70.37
2018-08-20T05:57:15.577Z,70.61
2018-08-20T05:59:43.785Z,69.65
2018-08-20T06:02:12.021Z,69.20
2018-08-20T06:04:40.238Z,69.21
2018-08-20T06:07:08.493Z,69.83
2018-08-20T06:09:36.698Z,68.87
2018-08-20T06:12:04.937Z,68.35
2018-08-20T06:14:33.140Z,68.43
2018-08-20T06:17:01.341Z,68.49
2018-08-20T06:19:29.554Z,67.74
2018-08-20T06:21:57.782Z,68.67
2018-08-20T06:24:26.009Z,68.54
2018-08-20T06:26:54.269Z,68.32
2018-08-20T06:29:22.494Z,68.09
2018-08-20T06:31:50.750Z,67.36
2018-08-20T06:34:19.041Z,67.94
2018-08-20T06:36:47.253Z,67.18
2018-08-20T06:39:15.494Z,66.58
2018-08-20T06:41:43.732Z,66.61
2018-08-20T06:44:11.906Z,65.62
2018-08-20T06:46:40.165Z,65.70
2018-08-20T06:49:09.201Z,65.51
2018-08-20T06:51:37.649Z,64.60
2018-08-20T06:54:06.119Z,64.69
2018-08-20T06:56:34.329Z,65.46
2018-08-20T06:59:02.565Z,64.71
2018-08-20T07:01:30.849Z,64.08
2018-08-20T07:03:59.334Z,65.12
2018-08-20T07:06:27.619Z,63.62
2018-08-20T07:08:55.780Z,64.82
2018-08-20T07:11:24.049Z,63.56
2018-08-20T07:13:52.305Z,63.04
2018-08-20T07:16:20.525Z,62.95
2018-08-20T07:18:48.757Z,62.60
2018-08-20T07:21:16.989Z,63.05
2018-08-20T07:23:45.260Z,63.89
2018-08-20T07:26:13.458Z,63.89
2018-08-20T07:28:42.765Z,64.76
2018-08-20T07:31:10.967Z,64.71
2018-08-20T07:33:39.210Z,64.40
2018-08-20T07:36:07.466Z,64.84
2018-08-20T07:38:35.693Z,64.29
2018-08-20T07:41:03.936Z,64.99
2018-08-20T07:43:32.142Z,64.06
2018-08-20T07:46:00.986Z,64.37
2018-08-20T07:48:29.231Z,64.66
2018-08-20T07:50:57.510Z,64.20
2018-08-20T07:53:26.786Z,64.18
2018-08-20T07:55:55.081Z,64.64
2018-08-20T07:58:23.374Z,65.74
2018-08-20T08:00:51.677Z,64.06
2018-08-20T08:03:29.237Z,63.71
2018-08-20T08:05:58.678Z,63.24
2018-08-20T08:08:27.106Z,63.29
2018-08-20T08:10:55.444Z,63.87
2018-08-20T08:13:23.729Z,63.43
2018-08-20T08:15:52.029Z,62.65
2018-08-20T08:18:20.285Z,62.94
2018-08-20T08:20:48.523Z,63.01
2018-08-20T08:23:16.789Z,62.84
2018-08-20T08:25:45.045Z,63.72
2018-08-20T08:28:13.289Z,63.79
2018-08-20T08:30:41.907Z,63.12
2018-08-20T08:33:10.169Z,63.41
2018-08-20T08:35:38.401Z,63.75
2018-08-20T08:38:06.870Z,63.46
2018-08-20T08:40:35.000Z,63.89
2018-08-20T08:43:03.246Z,62.93
2018-08-20T08:45:31.445Z,63.36
2018-08-20T08:47:59.674Z,63.45
2018-08-20T08:50:27.921Z,63.46
2018-08-20T08:52:56.150Z,62.39
2018-08-20T08:55:24.397Z,61.55
2018-08-20T08:57:52.681Z,61.89
2018-08-20T09:00:21.540Z,62.86
2018-08-20T09:02:49.786Z,61.42
2018-08-20T09:05:18.044Z,61.29
2018-08-20T09:07:46.318Z,62.15
2018-08-20T09:10:14.549Z,61.52
2018-08-20T09:12:43.860Z,61.51
2018-08-20T09:15:15.049Z,61.56
2018-08-20T09:17:43.506Z,60.95
2018-08-20T09:20:13.866Z,60.75
2018-08-20T09:22:42.141Z,60.35
2018-08-20T09:25:11.724Z,60.97
2018-08-20T09:27:40.245Z,61.61
2018-08-20T09:30:18.633Z,61.45
2018-08-20T09:32:47.554Z,60.61
2018-08-20T09:35:15.790Z,60.16
2018-08-20T09:37:44.005Z,59.92
2018-08-20T09:40:12.802Z,60.38
2018-08-20T09:42:41.717Z,59.44
2018-08-20T09:45:10.250Z,60.29
2018-08-20T09:47:39.450Z,59.63
2018-08-20T09:50:09.357Z,59.36
2018-08-20T09:52:37.594Z,59.72
2018-08-20T09:55:06.206Z,60.11
2018-08-20T09:57:34.445Z,59.70
2018-08-20T10:00:02.774Z,58.70
2018-08-20T10:02:30.989Z,59.52
2018-08-20T10:04:59.521Z,58.83
2018-08-20T10:07:27.729Z,59.16
2018-08-20T10:09:56.021Z,58.38
2018-08-20T10:12:24.278Z,57.74
2018-08-20T10:14:52.605Z,56.57
2018-08-20T10:17:20.824Z,56.46
2018-08-20T10:19:49.025Z,57.31
2018-08-20T10:22:17.249Z,58.09
2018-08-20T10:24:45.495Z,57.77
2018-08-20T10:27:13.682Z,58.25
2018-08-20T10:29:41.939Z,58.57
2018-08-20T10:32:10.250Z,58.55
2018-08-20T10:34:38.409Z,59.17
2018-08-20T10:37:06.634Z,59.28
2018-08-20T10:39:34.866Z,59.13
2018-08-20T10:42:03.101Z,59.11
2018-08-20T10:44:35.465Z,60.67
2018-08-20T10:47:03.789Z,60.58
2018-08-20T10:49:32.005Z,61.21
2018-08-20T10:52:00.249Z,61.38
2018-08-20T10:54:28.540Z,62.28
2018-08-20T10:56:56.781Z,62.32
2018-08-20T10:59:25.001Z,63.58
2018-08-20T11:01:53.251Z,64.54
2018-08-20T11:04:21.470Z,64.18
2018-08-20T11:06:49.669Z,64.90
2018-08-20T11:09:17.897Z,65.40
2018-08-20T11:11:46.105Z,64.12
2018-08-20T11:14:14.412Z,63.92
2018-08-20T11:16:42.585Z,64.83
2018-08-20T11:19:10.817Z,64.22
2018-08-20T11:21:39.033Z,64.47
2018-08-20T11:24:07.296Z,64.59
2018-08-20T11:26:35.523Z,64.62
2018-08-20T11:29:03.853Z,65.75
2018-08-20T11:31:32.118Z,64.33
2018-08-20T11:34:00.373Z,65.02
2018-08-20T11:36:29.146Z,64.51
2018-08-20T11:38:57.362Z,64.99
2018-08-20T11:41:25.622Z,64.87
2018-08-20T11:43:53.845Z,65.87
2018-08-20T11:46:22.053Z,64.69
2018-08-20T11:48:50.289Z,63.81
2018-08-20T11:51:18.517Z,63.72
2018-08-20T11:53:46.763Z,65.45
2018-08-20T11:56:16.075Z,65.52
2018-08-20T11:58:44.292Z,63.58
2018-08-20T12:01:12.531Z,64.00
2018-08-20T12:03:40.725Z,63.76
2018-08-20T12:06:08.966Z,65.05
2018-08-20T12:08:37.157Z,65.05
2018-08-20T12:11:05.381Z,65.64
2018-08-20T12:13:33.593Z,64.05
2018-08-20T12:16:01.809Z,64.45
2018-08-20T12:18:30.006Z,65.82
2018-08-20T12:20:58.253Z,65.44
2018-08-20T12:23:26.501Z,65.07
2018-08-20T12:25:54.727Z,65.73
2018-08-20T12:28:22.942Z,65.79
2018-08-20T12:30:51.212Z,65.16
2018-08-20T12:33:19.392Z,64.87
2018-08-20T12:35:47.597Z,64.43
2018-08-20T12:38:15.833Z,64.90
2018-08-20T12:40:44.061Z,65.30
2018-08-20T12:43:12.289Z,65.31
2018-08-20T12:45:40.515Z,64.31
2018-08-20T12:48:08.809Z,64.20
2018-08-20T12:50:37.043Z,65.12
2018-08-20T12:53:05.277Z,64.34
2018-08-20T12:55:33.529Z,66.27
2018-08-20T12:58:01.769Z,66.38
2018-08-20T13:00:30.035Z,66.62
2018-08-20T13:02:58.227Z,66.39
2018-08-20T13:05:26.489Z,65.55
2018-08-20T13:07:54.737Z,64.53
2018-08-20T13:10:22.979Z,64.55
2018-08-20T13:12:51.197Z,63.80
2018-08-20T13:15:20.484Z,63.21
2018-08-20T13:17:48.698Z,62.94
2018-08-20T13:20:16.906Z,62.20
2018-08-20T13:22:45.169Z,62.28
2018-08-20T13:25:13.389Z,61.75
2018-08-20T13:27:41.638Z,61.26
2018-08-20T13:30:10.445Z,59.48
2018-08-20T13:32:38.754Z,58.05
2018-08-20T13:35:07.562Z,58.47
2018-08-20T13:37:35.794Z,58.00
2018-08-20T13:40:04.241Z,57.83
2018-08-20T13:42:32.514Z,57.54
2018-08-20T13:45:00.969Z,57.04
2018-08-20T13:47:29.162Z,56.65
2018-08-20T13:50:04.283Z,57.31
2018-08-20T13:52:32.484Z,57.97
2018-08-20T13:55:00.698Z,58.23
2018-08-20T13:57:33.074Z,58.21
2018-08-20T14:00:01.349Z,58.15
2018-08-20T14:02:29.617Z,58.50
2018-08-20T14:04:57.833Z,59.57
2018-08-20T14:07:26.076Z,59.08
2018-08-20T14:09:54.327Z,60.71
2018-08-20T14:12:22.585Z,59.51
2018-08-20T14:14:50.814Z,60.46
2018-08-20T14:17:19.073Z,59.82
2018-08-20T14:19:47.310Z,58.05
2018-08-20T14:22:15.521Z,59.74
2018-08-20T14:24:43.753Z,59.16
2018-08-20T14:27:11.995Z,59.39
2018-08-20T14:29:40.249Z,58.78
2018-08-20T14:32:08.469Z,58.64
2018-08-20T14:34:36.691Z,58.72
2018-08-20T14:37:05.334Z,58.13
2018-08-20T14:39:33.545Z,56.88
2018-08-20T14:42:01.784Z,57.76
2018-08-20T14:44:29.989Z,57.57
2018-08-20T14:46:58.198Z,58.17
2018-08-20T14:49:26.418Z,58.99
2018-08-20T14:51:54.654Z,58.13
2018-08-20T14:54:22.885Z,58.48
2018-08-20T14:56:51.057Z,58.72
2018-08-20T14:59:19.285Z,57.98
2018-08-20T15:01:47.534Z,57.46
2018-08-20T15:04:15.748Z,56.95
2018-08-20T15:06:57.825Z,58.34
2018-08-20T15:09:27.391Z,57.86
2018-08-20T15:11:56.133Z,57.90
2018-08-20T15:14:24.350Z,57.23
2018-08-20T15:16:52.681Z,58.26
2018-08-20T15:19:20.893Z,57.44
2018-08-20T15:21:49.420Z,55.91
2018-08-20T15:24:18.729Z,55.84
2018-08-20T15:26:47.965Z,55.92
2018-08-20T15:29:16.655Z,55.85
2018-08-20T15:31:44.862Z,55.31
2018-08-20T15:34:13.077Z,55.78
2018-08-20T15:36:41.606Z,55.10
2018-08-20T15:39:10.221Z,55.56
2018-08-20T15:41:38.437Z,55.61
2018-08-20T15:44:07.929Z,55.03
2018-08-20T15:46:36.125Z,54.78
2018-08-20T15:49:04.910Z,55.14
2018-08-20T15:51:33.113Z,55.08
2018-08-20T15:54:01.329Z,55.04
2018-08-20T15:56:29.577Z,55.92
2018-08-20T15:58:57.877Z,54.63
2018-08-20T16:01:26.089Z,55.13
2018-08-20T16:03:54.641Z,54.29
2018-08-20T16:06:24.745Z,54.46
2018-08-20T16:08:52.993Z,53.64
2018-08-20T16:11:21.242Z,54.66
2018-08-20T16:13:49.461Z,54.11
2018-08-20T16:16:17.682Z,55.08
2018-08-20T16:18:45.905Z,54.02
2018-08-20T16:21:14.105Z,53.73
2018-08-20T16:23:42.317Z,53.60
2018-08-20T16:26:10.537Z,54.62
2018-08-20T16:28:38.803Z,54.87
2018-08-20T16:31:07.061Z,54.35
2018-08-20T16:33:35.269Z,54.98
2018-08-20T16:36:03.529Z,54.76
2018-08-20T16:38:31.761Z,53.47
2018-08-20T16:41:00.019Z,53.89
2018-08-20T16:43:28.278Z,53.98
2018-08-20T16:45:56.497Z,55.21
2018-08-20T16:48:24.725Z,55.87
2018-08-20T16:50:52.970Z,55.18
2018-08-20T16:53:21.205Z,56.16
2018-08-20T16:55:49.461Z,56.66
2018-08-20T16:58:17.678Z,55.38
2018-08-20T17:00:45.937Z,55.43
2018-08-20T17:03:14.201Z,55.46
2018-08-20T17:05:48.526Z,55.18
2018-08-20T17:08:21.878Z,55.63
2018-08-20T17:10:50.134Z,54.71
2018-08-20T17:13:18.389Z,54.93
2018-08-20T17:15:46.621Z,55.08
2018-08-20T17:18:14.865Z,55.48
2018-08-20T17:20:43.113Z,56.21
2018-08-20T17:23:16.025Z,56.08
2018-08-20T17:25:44.334Z,55.79
2018-08-20T17:28:12.602Z,56.99
2018-08-20T17:30:40.849Z,56.48
2018-08-20T17:33:09.174Z,57.45
2018-08-20T17:35:39.674Z,57.07
2018-08-20T17:38:07.921Z,57.64
2018-08-20T17:40:37.250Z,57.81
2018-08-20T17:43:05.921Z,57.96
2018-08-20T17:45:35.143Z,60.61
2018-08-20T17:48:03.411Z,60.56
2018-08-20T17:50:40.657Z,62.42
2018-08-20T17:53:09.013Z,62.86
2018-08-20T17:55:37.253Z,63.08
2018-08-20T17:58:05.526Z,63.41
2018-08-20T18:00:54.966Z,62.41
2018-08-20T18:03:28.330Z,62.86
2018-08-20T18:05:57.834Z,63.54
2018-08-20T18:08:27.197Z,63.59
2018-08-20T18:10:55.466Z,63.10
2018-08-20T18:13:36.553Z,63.17
2018-08-20T18:16:06.561Z,64.05
2018-08-20T18:18:35.461Z,63.17
2018-08-20T18:21:03.704Z,64.08
2018-08-20T18:23:33.181Z,63.57
2018-08-20T18:26:01.477Z,63.77
2018-08-20T18:28:35.394Z,63.76
2018-08-20T18:31:08.757Z,64.52
2018-08-20T18:33:36.981Z,64.93
2018-08-20T18:36:10.118Z,64.66
2018-08-20T18:38:44.476Z,64.78
2018-08-20T18:41:12.778Z,64.70
2018-08-20T18:43:41.082Z,64.37
2018-08-20T18:46:09.333Z,64.39
2018-08-20T18:48:38.584Z,64.60
2018-08-20T18:51:07.715Z,63.70
2018-08-20T18:53:35.941Z,63.95
2018-08-20T18:56:10.885Z,64.05
2018-08-20T18:58:39.113Z,63.55
2018-08-20T19:01:07.909Z,64.27
2018-08-20T19:03:41.414Z,64.07
2018-08-20T19:06:09.640Z,64.07
2018-08-20T19:08:39.696Z,64.30
2018-08-20T19:11:08.257Z,64.33
2018-08-20T19:13:36.545Z,63.45
2018-08-20T19:16:37.708Z,64.35
2018-08-20T19:19:06.858Z,63.67
2018-08-20T19:21:37.989Z,63.49
2018-08-20T19:24:07.373Z,63.98
2018-08-20T19:26:35.795Z,64.33
2018-08-20T19:29:15.320Z,63.53
2018-08-20T19:31:43.551Z,64.55
2018-08-20T19:34:11.821Z,63.52
2018-08-20T19:36:40.066Z,63.76
2018-08-20T19:39:08.305Z,64.42
2018-08-20T19:41:36.545Z,63.25
2018-08-20T19:44:04.809Z,63.61
2018-08-20T19:46:38.508Z,63.21
2018-08-20T19:49:14.984Z,63.55
2018-08-20T19:51:45.258Z,63.15
2018-08-20T19:54:15.009Z,63.90
2018-08-20T19:56:43.312Z,64.61
2018-08-20T19:59:11.914Z,64.30
2018-08-20T20:01:40.303Z,62.71
2018-08-20T20:04:13.460Z,63.97
2018-08-20T20:06:42.494Z,63.63
2018-08-20T20:09:11.136Z,62.91
2018-08-20T20:11:43.899Z,62.65
2018-08-20T20:14:12.157Z,63.19
2018-08-20T20:16:45.493Z,63.12
2018-08-20T20:19:13.729Z,62.32
2018-08-20T20:21:42.009Z,63.19
2018-08-20T20:24:11.098Z,62.95
2018-08-20T20:26:39.481Z,63.77
2018-08-20T20:29:08.816Z,63.11
2018-08-20T20:31:37.881Z,63.90
2018-08-20T20:34:06.356Z,63.59
2018-08-20T20:36:34.593Z,63.48
2018-08-20T20:39:02.838Z,64.44
2018-08-20T20:41:31.054Z,64.27
2018-08-20T20:43:59.324Z,63.54
2018-08-20T20:46:27.544Z,63.93
2018-08-20T20:48:55.793Z,65.00
2018-08-20T20:51:24.074Z,64.43
2018-08-20T20:53:52.312Z,63.87
2018-08-20T20:56:20.546Z,64.12
2018-08-20T20:58:48.764Z,63.70
2018-08-20T21:01:17.086Z,63.99
2018-08-20T21:03:46.370Z,64.54
2018-08-20T21:06:14.619Z,64.70
2018-08-20T21:08:48.968Z,64.93
2018-08-20T21:11:18.385Z,64.21
2018-08-20T21:13:47.914Z,63.70
2018-08-20T21:16:18.869Z,64.06
2018-08-20T21:18:49.913Z,63.85
2018-08-20T21:21:18.847Z,64.84
2018-08-20T21:23:47.105Z,65.42
2018-08-20T21:26:15.445Z,64.84
2018-08-20T21:28:45.013Z,64.85
2018-08-20T21:31:14.228Z,64.08
2018-08-20T21:33:43.137Z,64.91
2018-08-20T21:36:12.033Z,64.26
2018-08-20T21:38:40.251Z,65.39
2018-08-20T21:41:08.497Z,64.79
2018-08-20T21:43:42.081Z,64.61
2018-08-20T21:46:10.921Z,65.40
2018-08-20T21:48:39.729Z,65.92
2018-08-20T21:51:13.325Z,65.86
2018-08-20T21:53:41.542Z,65.53
2018-08-20T21:56:11.677Z,65.33
2018-08-20T21:58:41.289Z,65.18
2018-08-20T22:01:10.952Z,65.78
2018-08-20T22:03:39.605Z,65.04
2018-08-20T22:06:07.855Z,65.65
2018-08-20T22:08:36.092Z,65.81
2018-08-20T22:11:04.323Z,66.27
2018-08-20T22:13:32.566Z,64.88
2018-08-20T22:16:15.681Z,64.87
2018-08-20T22:18:45.323Z,65.52
2018-08-20T22:21:15.741Z,65.31
2018-08-20T22:23:44.874Z,65.39
2018-08-20T22:26:18.873Z,65.40
2018-08-20T22:28:50.244Z,65.54
2018-08-20T22:31:18.576Z,64.84
2018-08-20T22:33:53.221Z,65.88
2018-08-20T22:36:21.425Z,65.71
2018-08-20T22:38:53.650Z,65.11
2018-08-20T22:41:23.049Z,66.24
2018-08-20T22:43:51.480Z,67.39
2018-08-20T22:46:20.664Z,66.38
2018-08-20T22:48:51.704Z,66.23
2018-08-20T22:51:20.520Z,66.13
2018-08-20T22:53:51.057Z,65.38
2018-08-20T22:56:23.161Z,66.00
2018-08-20T22:58:51.724Z,65.51
2018-08-20T23:01:20.098Z,65.49
2018-08-20T23:03:48.329Z,65.51
2018-08-20T23:06:16.605Z,65.63
2018-08-20T23:08:44.829Z,66.17
2018-08-20T23:11:13.107Z,66.01
2018-08-20T23:13:41.316Z,66.08
2018-08-20T23:16:09.565Z,66.89
2018-08-20T23:18:37.789Z,65.79
2018-08-20T23:21:06.073Z,66.48
2018-08-20T23:23:37.925Z,66.89
2018-08-20T23:26:10.385Z,66.38
2018-08-20T23:28:40.839Z,66.67
2018-08-20T23:31:09.084Z,66.57
2018-08-20T23:33:38.848Z,66.38
2018-08-20T23:36:07.393Z,67.06
2018-08-20T23:38:35.643Z,66.77
2018-08-20T23:41:03.953Z,67.37
2018-08-20T23:43:32.237Z,67.67
2018-08-20T23:46:00.525Z,66.90
2018-08-20T23:48:28.781Z,66.52
2018-08-20T23:51:01.154Z,67.90
2018-08-20T23:53:29.441Z,67.34
2018-08-20T23:55:57.713Z,67.62
2018-08-20T23:58:25.933Z,68.25
